createdAt,value
2019-05-06T00:02:04.548Z,63.17
2019-05-06T00:04:54.211Z,64.42
2019-05-06T00:07:45.442Z,67.22
2019-05-06T00:10:35.394Z,63.45
2019-05-06T00:13:24.195Z,63.13
2019-05-06T00:16:14.331Z,62.40
2019-05-06T00:19:04.693Z,60.90
2019-05-06T00:21:54.100Z,59.83
2019-05-06T00:25:00.127Z,61.77
2019-05-06T00:28:06.953Z,60.70
2019-05-06T00:31:09.531Z,59.58
2019-05-06T00:33:46.459Z,58.83
2019-05-06T00:36:35.043Z,60.38
2019-05-06T00:39:30.819Z,57.78
2019-05-06T00:42:24.603Z,57.93
2019-05-06T00:45:13.652Z,57.50
2019-05-06T00:48:04.480Z,57.30
2019-05-06T00:50:53.639Z,57.15
2019-05-06T00:53:44.191Z,56.95
2019-05-06T00:56:33.989Z,56.55
2019-05-06T00:59:23.848Z,56.88
2019-05-06T01:02:14.041Z,57.27
2019-05-06T01:05:04.386Z,57.05
2019-05-06T01:07:54.735Z,56.42
2019-05-06T01:10:42.066Z,55.15
2019-05-06T01:13:41.002Z,55.25
2019-05-06T01:16:29.371Z,54.42
2019-05-06T01:19:17.959Z,55.65
2019-05-06T01:22:05.964Z,53.02
2019-05-06T01:24:55.821Z,54.38
2019-05-06T01:27:44.469Z,57.17
2019-05-06T01:30:33.698Z,52.48
2019-05-06T01:33:24.170Z,55.35
2019-05-06T01:36:14.211Z,53.42
2019-05-06T01:39:21.800Z,53.28
2019-05-06T01:42:14.442Z,55.60
2019-05-06T01:45:04.605Z,53.87
2019-05-06T01:47:54.354Z,53.25
2019-05-06T01:50:44.440Z,53.42
2019-05-06T01:53:33.887Z,52.88
2019-05-06T01:56:24.141Z,57.58
2019-05-06T01:59:14.028Z,55.70
2019-05-06T02:02:04.291Z,57.67
2019-05-06T02:04:54.085Z,52.03
2019-05-06T02:07:44.183Z,53.00
2019-05-06T02:10:31.918Z,53.40
2019-05-06T02:13:20.500Z,51.33
2019-05-06T02:16:09.100Z,53.17
2019-05-06T02:18:57.758Z,52.65
2019-05-06T02:21:47.512Z,52.73
2019-05-06T02:24:49.731Z,50.70
2019-05-06T02:27:38.084Z,50.85
2019-05-06T02:30:45.351Z,50.38
2019-05-06T02:33:35.568Z,51.30
2019-05-06T02:36:25.868Z,51.08
2019-05-06T02:39:14.381Z,50.70
2019-05-06T02:42:04.025Z,50.90
2019-05-06T02:44:54.113Z,50.25
2019-05-06T02:47:49.924Z,51.90
2019-05-06T02:50:45.994Z,51.33
2019-05-06T02:53:34.418Z,49.33
2019-05-06T02:56:24.023Z,51.13
2019-05-06T02:59:13.073Z,50.23
2019-05-06T03:02:03.314Z,50.08
2019-05-06T03:04:52.845Z,50.03
2019-05-06T03:07:43.489Z,49.90
2019-05-06T03:10:32.934Z,50.88
2019-05-06T03:13:23.631Z,49.48
2019-05-06T03:16:14.123Z,48.50
2019-05-06T03:19:04.080Z,50.65
2019-05-06T03:22:05.137Z,49.30
2019-05-06T03:24:55.534Z,50.52
2019-05-06T03:27:47.028Z,50.30
2019-05-06T03:30:36.292Z,48.87
2019-05-06T03:33:55.375Z,50.05
2019-05-06T03:36:18.590Z,50.63
2019-05-06T03:39:03.181Z,49.30
2019-05-06T03:41:53.811Z,49.75
2019-05-06T03:44:43.779Z,50.10
2019-05-06T03:47:34.738Z,50.15
2019-05-06T03:50:24.067Z,55.12
2019-05-06T03:53:14.071Z,49.05
2019-05-06T03:56:03.511Z,50.43
2019-05-06T03:58:53.620Z,52.38
2019-05-06T04:01:43.046Z,50.80
2019-05-06T04:04:33.240Z,50.45
2019-05-06T04:07:23.383Z,50.83
2019-05-06T04:10:13.715Z,50.75
2019-05-06T04:13:04.170Z,50.40
2019-05-06T04:15:56.159Z,50.38
2019-05-06T04:21:45.396Z,72.45
2019-05-06T04:24:35.397Z,50.65
2019-05-06T04:27:28.303Z,115.40
2019-05-06T04:30:18.486Z,164.07
2019-05-06T04:33:07.208Z,122.75
2019-05-06T04:35:55.481Z,105.15
2019-05-06T04:38:43.730Z,113.37
2019-05-06T04:41:34.064Z,104.60
2019-05-06T04:44:23.788Z,102.40
2019-05-06T04:47:14.711Z,101.15
2019-05-06T04:50:04.789Z,98.78
2019-05-06T04:52:53.685Z,98.42
2019-05-06T04:55:43.573Z,93.22
2019-05-06T04:58:33.554Z,91.32
2019-05-06T05:01:23.157Z,91.02
2019-05-06T05:04:26.887Z,88.30
2019-05-06T05:07:03.351Z,88.12
2019-05-06T05:09:53.883Z,85.60
2019-05-06T05:13:00.093Z,89.60
2019-05-06T05:15:59.134Z,660.33
2019-05-06T05:19:07.047Z,270.20
2019-05-06T05:21:56.871Z,130.65
2019-05-06T05:24:45.417Z,158.18
2019-05-06T05:27:33.918Z,155.07
2019-05-06T05:30:22.648Z,154.27
2019-05-06T05:33:12.236Z,154.95
2019-05-06T05:36:02.083Z,148.20
2019-05-06T05:38:52.250Z,149.23
2019-05-06T05:41:42.763Z,145.82
2019-05-06T05:44:32.441Z,143.43
2019-05-06T05:47:22.072Z,137.68
2019-05-06T05:50:18.704Z,135.57
2019-05-06T05:53:06.974Z,132.40
2019-05-06T05:55:55.370Z,132.30
2019-05-06T05:58:44.900Z,126.90
2019-05-06T06:01:33.258Z,123.70
2019-05-06T06:04:22.477Z,120.50
2019-05-06T06:07:12.167Z,117.90
2019-05-06T06:10:08.076Z,139.20
2019-05-06T06:12:56.375Z,727.73
2019-05-06T06:16:02.933Z,485.30
2019-05-06T06:18:59.400Z,187.70
2019-05-06T06:21:49.287Z,225.85
2019-05-06T06:24:37.805Z,236.87
2019-05-06T06:27:26.393Z,233.10
2019-05-06T06:30:14.956Z,219.85
2019-05-06T06:33:03.417Z,208.30
2019-05-06T06:35:54.419Z,203.10
2019-05-06T06:38:47.459Z,198.35
2019-05-06T06:41:35.548Z,196.72
2019-05-06T06:44:28.438Z,194.75
2019-05-06T06:47:16.916Z,191.12
2019-05-06T06:50:05.799Z,242.22
2019-05-06T06:52:54.520Z,198.60
2019-05-06T06:55:43.677Z,196.30
2019-05-06T06:58:37.051Z,199.70
2019-05-06T07:01:30.111Z,202.65
2019-05-06T07:04:23.599Z,189.80
2019-05-06T07:07:12.990Z,183.93
2019-05-06T07:10:02.618Z,184.67
2019-05-06T07:12:53.187Z,176.85
2019-05-06T07:15:42.651Z,163.40
2019-05-06T07:18:33.068Z,160.50
2019-05-06T07:21:22.721Z,158.42
2019-05-06T07:24:13.079Z,151.70
2019-05-06T07:27:03.240Z,154.42
2019-05-06T07:29:52.260Z,160.55
2019-05-06T07:32:42.371Z,188.90
2019-05-06T07:35:38.473Z,158.12
2019-05-06T07:38:22.770Z,158.20
2019-05-06T07:41:15.188Z,167.77
2019-05-06T07:44:04.976Z,178.15
2019-05-06T07:47:12.666Z,178.65
2019-05-06T07:50:13.011Z,170.45
2019-05-06T07:53:08.050Z,164.95
2019-05-06T07:55:56.407Z,165.10
2019-05-06T07:58:45.899Z,160.65
2019-05-06T08:01:33.919Z,154.18
2019-05-06T08:04:23.060Z,156.12
2019-05-06T08:07:12.609Z,167.18
2019-05-06T08:10:02.275Z,150.47
2019-05-06T08:12:52.857Z,151.57
2019-05-06T08:15:42.096Z,159.07
2019-05-06T08:18:32.809Z,167.72
2019-05-06T08:21:22.928Z,164.72
2019-05-06T08:24:12.047Z,163.75
2019-05-06T08:27:02.478Z,158.75
2019-05-06T08:29:52.673Z,151.53
2019-05-06T08:32:42.463Z,148.93
2019-05-06T08:35:33.092Z,140.43
2019-05-06T08:38:22.636Z,136.85
2019-05-06T08:41:11.871Z,134.35
2019-05-06T08:44:02.414Z,124.33
2019-05-06T08:46:50.448Z,121.37
2019-05-06T08:49:56.544Z,118.08
2019-05-06T08:53:05.119Z,111.65
2019-05-06T08:55:53.459Z,109.35
2019-05-06T08:58:45.833Z,106.17
2019-05-06T09:01:38.748Z,107.30
2019-05-06T09:04:28.332Z,103.78
2019-05-06T09:07:16.567Z,96.67
2019-05-06T09:10:06.944Z,96.28
2019-05-06T09:12:55.136Z,93.42
2019-05-06T09:15:43.409Z,88.40
2019-05-06T09:18:32.906Z,90.15
2019-05-06T09:21:22.678Z,89.80
2019-05-06T09:24:12.821Z,85.95
2019-05-06T09:27:09.009Z,112.42
2019-05-06T09:29:57.222Z,121.20
2019-05-06T09:32:45.608Z,120.72
2019-05-06T09:35:33.704Z,141.30
2019-05-06T09:38:22.849Z,127.27
2019-05-06T09:41:12.414Z,123.75
2019-05-06T09:44:03.182Z,113.45
2019-05-06T09:46:53.132Z,110.90
2019-05-06T09:49:43.560Z,125.97
2019-05-06T09:52:33.282Z,282.57
2019-05-06T09:55:32.756Z,322.63
2019-05-06T09:58:22.848Z,146.20
2019-05-06T10:01:13.081Z,164.90
2019-05-06T10:04:03.475Z,150.47
2019-05-06T10:06:59.463Z,148.93
2019-05-06T10:09:43.468Z,141.20
2019-05-06T10:12:32.864Z,136.22
2019-05-06T10:15:21.516Z,131.75
2019-05-06T10:18:13.123Z,284.85
2019-05-06T10:21:00.567Z,181.70
2019-05-06T10:23:48.569Z,182.45
2019-05-06T10:26:38.712Z,202.10
2019-05-06T10:29:40.365Z,477.47
2019-05-06T10:32:39.270Z,473.87
2019-05-06T10:35:29.665Z,253.07
2019-05-06T10:38:26.785Z,232.67
2019-05-06T10:41:18.040Z,502.73
2019-05-06T10:44:12.282Z,469.47
2019-05-06T10:47:02.824Z,420.08
2019-05-06T10:49:52.945Z,336.57
2019-05-06T10:52:59.866Z,338.77
2019-05-06T10:55:53.633Z,670.67
2019-05-06T10:58:44.002Z,401.57
2019-05-06T11:01:46.355Z,357.05
2019-05-06T11:04:35.199Z,337.70
2019-05-06T11:07:31.857Z,418.82
2019-05-06T11:10:23.785Z,373.85
2019-05-06T11:13:03.574Z,271.87
2019-05-06T11:15:55.071Z,282.32
2019-05-06T11:18:42.629Z,281.05
2019-05-06T11:21:32.851Z,263.55
2019-05-06T11:24:23.147Z,302.43
2019-05-06T11:27:25.231Z,317.87
2019-05-06T11:30:02.811Z,303.92
2019-05-06T11:33:04.122Z,306.15
2019-05-06T11:35:54.380Z,294.40
2019-05-06T11:38:43.243Z,274.37
2019-05-06T11:41:32.257Z,271.65
2019-05-06T11:44:23.571Z,265.50
2019-05-06T11:47:12.502Z,253.70
2019-05-06T11:50:02.510Z,233.35
2019-05-06T11:52:53.079Z,232.15
2019-05-06T11:55:40.625Z,212.72
2019-05-06T11:58:42.422Z,210.55
2019-05-06T12:01:32.772Z,211.12
2019-05-06T12:04:22.813Z,218.63
2019-05-06T12:07:15.452Z,239.25
2019-05-06T12:10:02.565Z,248.32
2019-05-06T12:12:53.357Z,287.80
2019-05-06T12:15:42.409Z,323.93
2019-05-06T12:18:30.412Z,341.48
2019-05-06T12:21:19.612Z,303.65
2019-05-06T12:24:07.920Z,298.20
2019-05-06T12:26:56.152Z,301.92
2019-05-06T12:29:44.683Z,295.33
2019-05-06T12:32:34.519Z,271.85
2019-05-06T12:35:23.455Z,272.52
2019-05-06T12:38:29.623Z,264.70
2019-05-06T12:41:06.564Z,312.02
2019-05-06T12:43:56.431Z,370.12
2019-05-06T12:47:04.615Z,306.25
2019-05-06T12:49:53.498Z,315.98
2019-05-06T12:52:44.110Z,300.65
2019-05-06T12:55:33.665Z,338.12
2019-05-06T12:58:23.353Z,329.32
2019-05-06T13:01:13.629Z,340.10
2019-05-06T13:04:04.564Z,330.80
2019-05-06T13:06:52.192Z,329.90
2019-05-06T13:09:43.262Z,318.82
2019-05-06T13:12:33.741Z,337.80
2019-05-06T13:15:24.343Z,357.12
2019-05-06T13:18:15.273Z,367.77
2019-05-06T13:21:06.459Z,344.43
2019-05-06T13:23:55.151Z,332.85
2019-05-06T13:26:43.277Z,321.75
2019-05-06T13:29:35.560Z,318.37
2019-05-06T13:32:26.009Z,356.80
2019-05-06T13:35:14.122Z,389.20
2019-05-06T13:38:03.294Z,358.43
2019-05-06T13:40:57.076Z,361.68
2019-05-06T13:43:43.692Z,356.70
2019-05-06T13:46:33.695Z,345.37
2019-05-06T13:49:29.808Z,344.00
2019-05-06T13:52:18.899Z,372.25
2019-05-06T13:55:08.149Z,365.18
2019-05-06T13:57:57.598Z,358.43
2019-05-06T14:00:45.985Z,360.55
2019-05-06T14:03:34.149Z,364.90
2019-05-06T14:06:22.657Z,394.05
2019-05-06T14:09:27.952Z,380.83
2019-05-06T14:12:02.732Z,394.85
2019-05-06T14:14:52.658Z,402.43
2019-05-06T14:17:42.406Z,383.70
2019-05-06T14:20:31.022Z,368.02
2019-05-06T14:23:21.589Z,358.98
2019-05-06T14:26:12.618Z,349.55
2019-05-06T14:29:08.811Z,411.05
2019-05-06T14:31:58.209Z,373.82
2019-05-06T14:34:46.676Z,384.10
2019-05-06T14:37:35.004Z,378.27
2019-05-06T14:40:25.137Z,368.50
2019-05-06T14:43:13.849Z,440.47
2019-05-06T14:46:02.607Z,397.77
2019-05-06T14:48:53.271Z,407.45
2019-05-06T14:51:42.618Z,381.10
2019-05-06T14:54:32.994Z,382.05
2019-05-06T14:57:22.786Z,390.87
2019-05-06T15:00:13.369Z,364.70
2019-05-06T15:03:02.267Z,361.15
2019-05-06T15:05:50.932Z,351.07
2019-05-06T15:08:42.615Z,341.63
2019-05-06T15:11:29.835Z,338.92
2019-05-06T15:14:18.187Z,345.93
2019-05-06T15:17:06.688Z,502.37
2019-05-06T15:19:55.040Z,464.02
2019-05-06T15:22:43.277Z,368.77
2019-05-06T15:25:34.803Z,460.67
2019-05-06T15:28:23.598Z,395.85
2019-05-06T15:31:13.677Z,376.02
2019-05-06T15:34:03.520Z,365.07
2019-05-06T15:37:06.895Z,362.40
2019-05-06T15:39:55.371Z,346.18
2019-05-06T15:42:43.741Z,343.85
2019-05-06T15:45:32.487Z,346.95
2019-05-06T15:48:22.148Z,340.20
2019-05-06T15:51:12.213Z,317.60
2019-05-06T15:54:02.602Z,331.00
2019-05-06T15:56:52.986Z,367.57
2019-05-06T15:59:43.932Z,534.27
2019-05-06T16:02:30.597Z,444.77
2019-05-06T16:05:20.851Z,384.43
2019-05-06T16:08:08.916Z,379.77
2019-05-06T16:10:59.116Z,383.70
2019-05-06T16:13:47.847Z,382.15
2019-05-06T16:16:36.255Z,670.42
2019-05-06T16:19:24.687Z,595.05
2019-05-06T16:22:12.939Z,446.60
2019-05-06T16:25:21.418Z,447.95
2019-05-06T16:28:12.929Z,452.97
2019-05-06T16:31:12.968Z,428.88
2019-05-06T16:34:05.013Z,399.07
2019-05-06T16:36:54.068Z,385.45
2019-05-06T16:39:42.165Z,387.90
2019-05-06T16:42:30.655Z,563.55
2019-05-06T16:45:19.056Z,520.35
2019-05-06T16:48:07.290Z,423.73
2019-05-06T16:50:55.591Z,388.90
2019-05-06T16:53:43.919Z,449.70
2019-05-06T16:56:44.609Z,403.65
2019-05-06T16:59:35.117Z,386.77
2019-05-06T17:02:26.635Z,382.40
2019-05-06T17:05:17.931Z,379.82
2019-05-06T17:08:06.484Z,373.60
2019-05-06T17:10:54.900Z,368.80
2019-05-06T17:13:44.676Z,363.98
2019-05-06T17:16:34.020Z,340.48
2019-05-06T17:19:23.809Z,328.25
2019-05-06T17:22:12.490Z,318.02
2019-05-06T17:25:02.419Z,268.35
2019-05-06T17:27:52.645Z,276.00
2019-05-06T17:30:43.167Z,357.12
2019-05-06T17:33:42.946Z,314.85
2019-05-06T17:36:33.527Z,320.15
2019-05-06T17:39:22.665Z,340.27
2019-05-06T17:42:11.293Z,376.32
2019-05-06T17:44:59.948Z,355.73
2019-05-06T17:47:49.753Z,325.35
2019-05-06T17:50:37.803Z,321.75
2019-05-06T17:53:26.259Z,311.48
2019-05-06T17:56:14.522Z,311.12
2019-05-06T17:59:03.341Z,301.88
2019-05-06T18:01:56.347Z,294.73
2019-05-06T18:04:44.917Z,289.35
2019-05-06T18:07:33.490Z,299.98
2019-05-06T18:10:22.207Z,409.75
2019-05-06T18:13:12.627Z,407.00
2019-05-06T18:16:00.670Z,336.98
2019-05-06T18:18:49.012Z,339.60
2019-05-06T18:21:37.483Z,330.48
2019-05-06T18:24:25.963Z,323.82
2019-05-06T18:27:14.284Z,319.15
2019-05-06T18:30:13.445Z,314.00
2019-05-06T18:32:53.061Z,320.37
2019-05-06T18:35:41.971Z,297.70
2019-05-06T18:38:33.790Z,295.12
2019-05-06T18:41:23.546Z,284.45
2019-05-06T18:44:13.624Z,280.40
2019-05-06T18:47:02.825Z,275.02
2019-05-06T18:49:52.335Z,270.12
2019-05-06T18:52:43.103Z,260.98
2019-05-06T18:55:33.084Z,260.68
2019-05-06T18:58:22.381Z,251.50
2019-05-06T19:01:13.214Z,245.70
2019-05-06T19:04:03.404Z,239.10
2019-05-06T19:07:08.837Z,237.60
2019-05-06T19:09:43.406Z,232.50
2019-05-06T19:12:40.295Z,224.15
2019-05-06T19:15:22.013Z,219.28
2019-05-06T19:18:12.809Z,218.50
2019-05-06T19:21:02.592Z,214.97
2019-05-06T19:23:52.321Z,215.68
2019-05-06T19:26:40.072Z,205.67
2019-05-06T19:29:29.459Z,202.38
2019-05-06T19:32:17.759Z,203.80
2019-05-06T19:35:05.820Z,191.82
2019-05-06T19:37:54.281Z,184.13
2019-05-06T19:40:43.745Z,186.65
2019-05-06T19:43:34.701Z,184.65
2019-05-06T19:46:25.741Z,178.65
2019-05-06T19:49:15.491Z,171.37
2019-05-06T19:52:05.243Z,169.22
2019-05-06T19:55:00.144Z,161.10
2019-05-06T19:57:48.840Z,167.37
2019-05-06T20:00:37.258Z,161.73
2019-05-06T20:03:25.764Z,158.05
2019-05-06T20:06:15.764Z,162.43
2019-05-06T20:09:23.113Z,152.47
2019-05-06T20:12:26.635Z,153.15
2019-05-06T20:15:33.542Z,146.32
2019-05-06T20:18:22.127Z,147.37
2019-05-06T20:21:10.460Z,145.28
2019-05-06T20:23:58.696Z,146.93
2019-05-06T20:26:46.864Z,143.52
2019-05-06T20:29:38.189Z,141.07
2019-05-06T20:32:26.318Z,141.65
2019-05-06T20:35:15.406Z,141.85
2019-05-06T20:38:03.732Z,135.22
2019-05-06T20:40:51.943Z,132.03
2019-05-06T20:43:42.549Z,129.93
2019-05-06T20:46:32.299Z,129.12
2019-05-06T20:49:22.920Z,126.35
2019-05-06T20:52:12.251Z,127.02
2019-05-06T20:55:02.884Z,128.20
2019-05-06T20:57:52.933Z,124.87
2019-05-06T21:00:42.941Z,124.47
2019-05-06T21:03:32.764Z,124.42
2019-05-06T21:06:22.557Z,119.53
2019-05-06T21:09:12.487Z,119.33
2019-05-06T21:12:02.939Z,117.47
2019-05-06T21:14:53.701Z,114.82
2019-05-06T21:17:43.332Z,113.15
2019-05-06T21:20:33.074Z,113.50
2019-05-06T21:23:22.894Z,112.47
2019-05-06T21:26:16.075Z,107.05
2019-05-06T21:29:05.379Z,108.35
2019-05-06T21:31:53.851Z,104.15
2019-05-06T21:34:43.249Z,103.10
2019-05-06T21:37:31.839Z,101.85
2019-05-06T21:40:20.039Z,98.67
2019-05-06T21:43:08.566Z,99.40
2019-05-06T21:45:56.814Z,96.32
2019-05-06T21:48:45.282Z,96.02
2019-05-06T21:51:35.508Z,94.60
2019-05-06T21:54:23.923Z,91.60
2019-05-06T21:57:12.337Z,92.22
2019-05-06T22:00:02.646Z,91.35
2019-05-06T22:02:53.064Z,92.33
2019-05-06T22:05:41.696Z,87.88
2019-05-06T22:08:32.656Z,87.80
2019-05-06T22:11:19.863Z,88.90
2019-05-06T22:14:08.228Z,87.82
2019-05-06T22:16:56.718Z,84.95
2019-05-06T22:19:45.502Z,86.70
2019-05-06T22:22:38.128Z,84.72
2019-05-06T22:28:34.809Z,84.90
2019-05-06T22:31:24.280Z,81.60
2019-05-06T22:34:13.472Z,80.57
2019-05-06T22:37:03.351Z,78.07
2019-05-06T22:39:52.732Z,80.00
2019-05-06T22:42:43.097Z,78.83
2019-05-06T22:45:34.332Z,77.85
2019-05-06T22:48:22.761Z,76.85
2019-05-06T22:51:12.334Z,74.72
2019-05-06T22:54:02.711Z,73.67
2019-05-06T22:56:52.407Z,73.17
2019-05-06T22:59:42.698Z,74.37
2019-05-06T23:06:45.594Z,72.95
2019-05-06T23:09:33.822Z,72.32
2019-05-06T23:12:23.120Z,72.87
2019-05-06T23:15:12.149Z,70.08
2019-05-06T23:18:02.312Z,69.45
2019-05-06T23:20:52.734Z,69.20
2019-05-06T23:23:43.585Z,70.50
2019-05-06T23:26:31.975Z,67.35
2019-05-06T23:29:22.306Z,67.27
2019-05-06T23:32:13.784Z,65.72
2019-05-06T23:34:59.924Z,66.35
2019-05-06T23:38:24.651Z,66.02
2019-05-06T23:41:49.667Z,65.55
2019-05-06T23:45:14.332Z,63.58
2019-05-06T23:48:39.055Z,62.58
2019-05-06T23:52:04.168Z,63.15
2019-05-06T23:55:28.975Z,62.25
2019-05-06T23:58:17.650Z,61.10
